DEACM EGJJ-EGJJ

Flight info

Callsign DEACM
Flight time 0h 13m
Altitude 1000
Route ORIST
Aircraft SF50/L-SDGRWY/L

Departure

Time 2026-05-05 18:12
Airport Jersey Airport (EGJJ)

Arrival

Time 2026-05-05 18:25
Airport Jersey Airport (EGJJ)
Time Latitude Longitude Altitude Speed Heading
2026-05-05 17:59 49.20686 -2.18259 278 ft 0 kts
2026-05-05 18:07 49.20692 -2.18279 278 ft 4 kts 274°
2026-05-05 18:07 49.20696 -2.18358 278 ft 10 kts 271°
2026-05-05 18:08 49.20699 -2.18428 278 ft 1 kts 271°
2026-05-05 18:08 49.20706 -2.18456 278 ft 7 kts 318°
2026-05-05 18:08 49.20738 -2.18466 278 ft 3 kts 51°
2026-05-05 18:09 49.20740 -2.18459 278 ft 1 kts 77°
2026-05-05 18:09 49.20744 -2.18374 278 ft 13 kts 81°
2026-05-05 18:09 49.20817 -2.18331 278 ft 13 kts 341°
2026-05-05 18:09 49.20891 -2.18423 275 ft 16 kts 269°
2026-05-05 18:10 49.20860 -2.18825 277 ft 70 kts 262°
2026-05-05 18:10 49.20776 -2.19837 385 ft 114 kts 269°
2026-05-05 18:10 49.20641 -2.21163 598 ft 141 kts 268°
2026-05-05 18:10 49.20498 -2.22812 592 ft 172 kts 267°
2026-05-05 18:11 49.20305 -2.24702 682 ft 188 kts 263°
2026-05-05 18:11 49.19812 -2.26632 744 ft 205 kts 241°
2026-05-05 18:11 49.18788 -2.28234 807 ft 220 kts 214°
2026-05-05 18:11 49.17276 -2.28833 849 ft 234 kts 177°
2026-05-05 18:12 49.15762 -2.28024 883 ft 240 kts 143°
2026-05-05 18:12 49.14745 -2.26021 912 ft 242 kts 109°
2026-05-05 18:12 49.14506 -2.23507 996 ft 240 kts 88°
2026-05-05 18:12 49.14492 -2.20897 943 ft 248 kts 86°
2026-05-05 18:13 49.14541 -2.18227 837 ft 252 kts 84°
2026-05-05 18:13 49.14650 -2.15624 824 ft 240 kts 80°
2026-05-05 18:13 49.15122 -2.13265 788 ft 228 kts 58°
2026-05-05 18:13 49.16193 -2.11647 841 ft 213 kts 26°
2026-05-05 18:14 49.17582 -2.11227 857 ft 206 kts 355°
2026-05-05 18:14 49.18913 -2.11892 897 ft 198 kts 337°
2026-05-05 18:14 49.20070 -2.12712 924 ft 163 kts 335°
2026-05-05 18:14 49.20957 -2.13507 869 ft 133 kts 328°
2026-05-05 18:15 49.21171 -2.14675 805 ft 116 kts 267°
2026-05-05 18:15 49.21066 -2.15865 588 ft 111 kts 270°
2026-05-05 18:15 49.21004 -2.16923 473 ft 90 kts 274°
2026-05-05 18:15 49.20934 -2.17844 382 ft 88 kts 270°
2026-05-05 18:16 49.20866 -2.18790 289 ft 90 kts 265°
2026-05-05 18:16 49.20789 -2.19610 279 ft 70 kts 264°
2026-05-05 18:16 49.20716 -2.20585 381 ft 108 kts 270°
2026-05-05 18:16 49.20596 -2.21924 489 ft 149 kts 267°
2026-05-05 18:17 49.20356 -2.23661 689 ft 184 kts 251°
2026-05-05 18:17 49.19458 -2.25301 859 ft 225 kts 217°
2026-05-05 18:17 49.17851 -2.26143 906 ft 269 kts 187°
2026-05-05 18:17 49.15982 -2.25747 952 ft 271 kts 158°
2026-05-05 18:18 49.14476 -2.24102 896 ft 267 kts 130°
2026-05-05 18:18 49.13606 -2.21712 865 ft 261 kts 105°
2026-05-05 18:18 49.13390 -2.19030 922 ft 251 kts 85°
2026-05-05 18:18 49.13638 -2.16398 843 ft 251 kts 73°
2026-05-05 18:19 49.14082 -2.13812 715 ft 254 kts 71°
2026-05-05 18:19 49.14502 -2.11208 775 ft 248 kts 74°
2026-05-05 18:19 49.14828 -2.08703 826 ft 233 kts 75°
2026-05-05 18:19 49.15118 -2.06296 667 ft 228 kts 77°
2026-05-05 18:20 49.15370 -2.03953 567 ft 220 kts 79°
2026-05-05 18:20 49.15502 -2.02454 566 ft 211 kts 77°
2026-05-05 18:20 49.16320 -1.99948 597 ft 188 kts 38°
2026-05-05 18:20 49.17500 -1.99451 671 ft 175 kts 351°
2026-05-05 18:21 49.18681 -1.99869 615 ft 176 kts 347°
2026-05-05 18:21 49.19821 -2.00315 731 ft 169 kts 345°
2026-05-05 18:21 49.20855 -2.01118 713 ft 171 kts 319°
2026-05-05 18:21 49.21620 -2.02539 634 ft 175 kts 302°
2026-05-05 18:22 49.21881 -2.04298 841 ft 167 kts 281°
2026-05-05 18:22 49.21912 -2.06079 921 ft 166 kts 272°
2026-05-05 18:22 49.21798 -2.07864 945 ft 171 kts 264°
2026-05-05 18:22 49.21588 -2.09645 976 ft 157 kts 265°
2026-05-05 18:23 49.21479 -2.11104 828 ft 124 kts 273°
2026-05-05 18:23 49.21417 -2.12326 772 ft 105 kts 268°
2026-05-05 18:23 49.21303 -2.13429 649 ft 112 kts 268°
2026-05-05 18:23 49.21191 -2.14593 591 ft 109 kts 268°
2026-05-05 18:24 49.21100 -2.15721 523 ft 104 kts 272°
2026-05-05 18:24 49.21025 -2.16822 459 ft 105 kts 270°
2026-05-05 18:24 49.20935 -2.17946 385 ft 106 kts 270°
2026-05-05 18:24 49.20852 -2.18919 278 ft 77 kts 260°
2026-05-05 18:25 49.20801 -2.19510 280 ft 23 kts 263°
2026-05-05 18:25 49.20791 -2.19578 279 ft 16 kts 241°
2026-05-05 18:25 49.20696 -2.19561 278 ft 8 kts 82°
2026-05-05 18:25 49.20703 -2.19495 278 ft 5 kts 79°
2026-05-05 18:26 49.20707 -2.19464 278 ft 2 kts 82°
2026-05-05 18:26 49.20708 -2.19449 278 ft 3 kts 84°
2026-05-05 18:26 49.20707 -2.19375 278 ft 11 kts 105°
2026-05-05 18:26 49.20688 -2.19245 278 ft 15 kts 105°
2026-05-05 18:27 49.20686 -2.19077 278 ft 16 kts 83°
2026-05-05 18:27 49.20700 -2.18927 278 ft 12 kts 83°
2026-05-05 18:27 49.20708 -2.18821 278 ft 8 kts 82°
2026-05-05 18:27 49.20712 -2.18773 278 ft 6 kts 83°
2026-05-05 18:28 49.20731 -2.18545 278 ft 14 kts 84°
2026-05-05 18:28 49.20746 -2.18380 278 ft 18 kts 75°
2026-05-05 18:28 49.20795 -2.18318 278 ft 0 kts 354°
2026-05-05 18:29 49.20801 -2.18320 278 ft 5 kts 347°
2026-05-05 18:29 49.20846 -2.18355 277 ft 7 kts 326°
2026-05-05 18:30 49.20889 -2.18407 281 ft 7 kts 296°
2026-05-05 18:30 49.20891 -2.18447 281 ft 0 kts 261°
2026-05-05 18:30 49.20880 -2.18568 276 ft 41 kts 263°
2026-05-05 18:30 49.20843 -2.19031 278 ft 88 kts 260°
2026-05-05 18:31 49.20735 -2.20213 371 ft 130 kts 268°
2026-05-05 18:31 49.20641 -2.21759 448 ft 160 kts 270°
2026-05-05 18:31 49.20547 -2.23519 523 ft 179 kts 268°
2026-05-05 18:31 49.20336 -2.25659 464 ft 227 kts 258°
2026-05-05 18:32 49.19451 -2.27853 676 ft 257 kts 223°
2026-05-05 18:32 49.17796 -2.28771 735 ft 260 kts 181°
2026-05-05 18:32 49.16128 -2.27827 765 ft 261 kts 140°
2026-05-05 18:32 49.15179 -2.25529 745 ft 258 kts 103°
2026-05-05 18:33 49.15013 -2.22870 874 ft 249 kts 86°
2026-05-05 18:33 49.15071 -2.20230 838 ft 249 kts 84°
2026-05-05 18:33 49.15208 -2.17602 866 ft 247 kts 80°
2026-05-05 18:33 49.15428 -2.14997 750 ft 249 kts 79°
2026-05-05 18:34 49.15650 -2.12373 768 ft 244 kts 78°
2026-05-05 18:34 49.16385 -2.10233 888 ft 231 kts 40°
2026-05-05 18:34 49.17868 -2.09480 849 ft 229 kts
2026-05-05 18:34 49.19451 -2.09681 861 ft 226 kts 354°
2026-05-05 18:35 49.20813 -2.10099 833 ft 177 kts 336°
2026-05-05 18:35 49.21456 -2.11404 817 ft 152 kts 283°
2026-05-05 18:35 49.21330 -2.12902 743 ft 136 kts 264°
2026-05-05 18:35 49.21183 -2.14340 762 ft 141 kts 270°
2026-05-05 18:36 49.21072 -2.15905 665 ft 153 kts 268°
2026-05-05 18:36 49.20953 -2.17601 438 ft 167 kts 271°
2026-05-05 18:36 49.20818 -2.19282 339 ft 151 kts 264°
2026-05-05 18:36 49.20695 -2.20850 690 ft 159 kts 267°
2026-05-05 18:37 49.20532 -2.22742 836 ft 203 kts 265°
2026-05-05 18:37 49.20278 -2.24971 844 ft 218 kts 263°
2026-05-05 18:37 49.19897 -2.27247 807 ft 227 kts 242°
2026-05-05 18:37 49.18513 -2.28232 765 ft 234 kts 181°
2026-05-05 18:38 49.16937 -2.27933 821 ft 229 kts 169°
2026-05-05 18:38 49.15407 -2.27497 887 ft 222 kts 167°
2026-05-05 18:38 49.14106 -2.26260 919 ft 226 kts 128°
2026-05-05 18:38 49.13522 -2.24100 988 ft 223 kts 92°
2026-05-05 18:39 49.13607 -2.21751 1018 ft 225 kts 78°
2026-05-05 18:39 49.13865 -2.19332 863 ft 236 kts 79°
2026-05-05 18:39 49.14121 -2.16836 855 ft 233 kts 76°
2026-05-05 18:39 49.14397 -2.14460 827 ft 221 kts 74°
2026-05-05 18:40 49.15224 -2.12681 802 ft 204 kts 28°
2026-05-05 18:40 49.16570 -2.12376 797 ft 192 kts 359°
2026-05-05 18:40 49.17890 -2.12513 802 ft 187 kts 354°
2026-05-05 18:40 49.19171 -2.12721 771 ft 183 kts 354°
2026-05-05 18:41 49.20395 -2.12981 900 ft 175 kts 352°
2026-05-05 18:41 49.21400 -2.13795 895 ft 180 kts 290°
2026-05-05 18:41 49.21080 -2.15713 674 ft 193 kts 261°
2026-05-05 18:41 49.20953 -2.17730 591 ft 174 kts 269°
2026-05-05 18:42 49.20783 -2.19462 612 ft 161 kts 265°
2026-05-05 18:42 49.20671 -2.21098 726 ft 146 kts 270°
2026-05-05 18:42 49.20601 -2.22565 969 ft 132 kts 270°
2026-05-05 18:42 49.20487 -2.23974 951 ft 137 kts 268°
2026-05-05 18:43 49.20001 -2.25214 917 ft 151 kts 210°
2026-05-05 18:43 49.18972 -2.25116 862 ft 156 kts 161°
2026-05-05 18:43 49.17935 -2.24662 863 ft 157 kts 162°
2026-05-05 18:43 49.16886 -2.24348 926 ft 151 kts 168°
2026-05-05 18:44 49.15858 -2.24017 948 ft 153 kts 169°
2026-05-05 18:44 49.14819 -2.23547 916 ft 157 kts 152°
2026-05-05 18:44 49.14015 -2.22469 913 ft 155 kts 111°
2026-05-05 18:44 49.14053 -2.20942 936 ft 143 kts 69°
2026-05-05 18:45 49.14311 -2.19451 891 ft 147 kts 72°
2026-05-05 18:45 49.14499 -2.17944 1034 ft 139 kts 77°
2026-05-05 18:45 49.14572 -2.16507 1144 ft 136 kts 84°
2026-05-05 18:45 49.14598 -2.15122 1310 ft 127 kts 81°
2026-05-05 18:46 49.14628 -2.13781 1394 ft 125 kts 81°
2026-05-05 18:46 49.14689 -2.12497 1559 ft 117 kts 77°
2026-05-05 18:46 49.14775 -2.11242 1766 ft 126 kts 77°
2026-05-05 18:46 49.14871 -2.09827 2038 ft 147 kts 78°
2026-05-05 18:47 49.14951 -2.08089 2123 ft 177 kts 81°
2026-05-05 18:47 49.15045 -2.06033 1967 ft 211 kts 82°
2026-05-05 18:47 49.15155 -2.03691 1968 ft 231 kts 81°
2026-05-05 18:47 49.15312 -2.01168 1987 ft 245 kts 80°
2026-05-05 18:48 49.15493 -1.98801 1971 ft 199 kts 78°
2026-05-05 18:48 49.15667 -1.96924 1929 ft 167 kts 76°
2026-05-05 18:48 49.15851 -1.95173 2001 ft 172 kts 77°
2026-05-05 18:48 49.16009 -1.93295 2007 ft 182 kts 78°
2026-05-05 18:49 49.16173 -1.91334 2008 ft 190 kts 78°
2026-05-05 18:49 49.16621 -1.89530 2071 ft 182 kts 45°
2026-05-05 18:49 49.17765 -1.88801 2034 ft 186 kts 360°
2026-05-05 18:49 49.18989 -1.89494 2029 ft 193 kts 327°
2026-05-05 18:50 49.19884 -1.91025 2134 ft 194 kts 304°
2026-05-05 18:50 49.20475 -1.92927 2066 ft 202 kts 297°
2026-05-05 18:50 49.21047 -1.94879 2037 ft 206 kts 299°
2026-05-05 18:50 49.21619 -1.96893 2077 ft 206 kts 296°
2026-05-05 18:51 49.22102 -1.98832 2077 ft 178 kts 291°
2026-05-05 18:51 49.22269 -2.00612 1862 ft 163 kts 275°
2026-05-05 18:51 49.22185 -2.02257 1768 ft 147 kts 268°
2026-05-05 18:51 49.22033 -2.03841 1834 ft 152 kts 268°
2026-05-05 18:52 49.21921 -2.05457 1859 ft 157 kts 272°
2026-05-05 18:52 49.21810 -2.07175 1780 ft 166 kts 269°
2026-05-05 18:52 49.21683 -2.08984 1613 ft 178 kts 268°
2026-05-05 18:52 49.21510 -2.10779 1371 ft 155 kts 265°
2026-05-05 18:53 49.21376 -2.12245 1093 ft 125 kts 269°
2026-05-05 18:53 49.21278 -2.13418 935 ft 99 kts 270°
2026-05-05 18:53 49.21209 -2.14440 755 ft 96 kts 272°
2026-05-05 18:53 49.21131 -2.15448 704 ft 98 kts 270°
2026-05-05 18:54 49.21048 -2.16540 585 ft 102 kts 265°
2026-05-05 18:54 49.20968 -2.17592 435 ft 99 kts 268°
2026-05-05 18:54 49.20879 -2.18543 295 ft 79 kts 268°
2026-05-05 18:54 49.20818 -2.19254 279 ft 67 kts 264°
2026-05-05 18:55 49.20745 -2.20238 377 ft 112 kts 260°
2026-05-05 18:55 49.20571 -2.21522 591 ft 137 kts 255°
2026-05-05 18:55 49.20265 -2.22971 785 ft 154 kts 253°
2026-05-05 18:55 49.19820 -2.24586 789 ft 176 kts 239°
2026-05-05 18:56 49.18777 -2.25698 814 ft 197 kts 197°
2026-05-05 18:56 49.17407 -2.25540 844 ft 203 kts 160°
2026-05-05 18:56 49.16169 -2.24531 960 ft 203 kts 140°
2026-05-05 18:56 49.15364 -2.22811 1057 ft 199 kts 112°
2026-05-05 18:57 49.14898 -2.20771 949 ft 206 kts 98°
2026-05-05 18:57 49.14766 -2.18593 873 ft 209 kts 86°
2026-05-05 18:57 49.14957 -2.16387 867 ft 217 kts 68°
2026-05-05 18:57 49.15797 -2.14397 869 ft 240 kts 41°
2026-05-05 18:58 49.17249 -2.13171 756 ft 249 kts 14°
2026-05-05 18:58 49.18810 -2.12930 714 ft 191 kts
2026-05-05 18:58 49.20151 -2.13004 733 ft 199 kts 356°
2026-05-05 18:58 49.21160 -2.13692 813 ft 136 kts 300°
2026-05-05 18:59 49.21183 -2.14948 629 ft 111 kts 270°
2026-05-05 18:59 49.21072 -2.16238 491 ft 132 kts 268°
2026-05-05 18:59 49.20962 -2.17516 391 ft 100 kts 269°
2026-05-05 18:59 49.20896 -2.18457 309 ft 98 kts 262°
2026-05-05 19:00 49.20798 -2.19434 281 ft 80 kts 262°
2026-05-05 19:00 49.20750 -2.20020 278 ft 32 kts 248°
2026-05-05 19:00 49.20587 -2.20089 278 ft 22 kts 172°
2026-05-05 19:00 49.20523 -2.20002 278 ft 10 kts 108°
2026-05-05 19:01 49.20539 -2.19932 278 ft 6 kts
2026-05-05 19:01 49.20593 -2.19923 278 ft 10 kts 37°
2026-05-05 19:01 49.20606 -2.19843 278 ft 11 kts 84°
2026-05-05 19:01 49.20622 -2.19692 278 ft 12 kts 49°
2026-05-05 19:02 49.20678 -2.19629 278 ft 8 kts 49°
2026-05-05 19:02 49.20696 -2.19565 278 ft 7 kts 79°
2026-05-05 19:02 49.20702 -2.19483 278 ft 9 kts 82°
2026-05-05 19:02 49.20711 -2.19382 278 ft 10 kts 102°
2026-05-05 19:03 49.20694 -2.19287 278 ft 10 kts 104°
2026-05-05 19:03 49.20680 -2.19169 278 ft 12 kts 77°
2026-05-05 19:03 49.20689 -2.19029 278 ft 14 kts 84°
2026-05-05 19:03 49.20703 -2.18874 278 ft 14 kts 81°
2026-05-05 19:04 49.20715 -2.18752 278 ft 10 kts 82°
2026-05-05 19:04 49.20725 -2.18612 278 ft 17 kts 90°
2026-05-05 19:04 49.20720 -2.18472 278 ft 11 kts 134°
2026-05-05 19:04 49.20696 -2.18344 278 ft 16 kts 86°
2026-05-05 19:05 49.20700 -2.18245 278 ft 4 kts 44°
2026-05-05 19:05 49.20705 -2.18241 278 ft 0 kts